sensor_id;sensor_type;location;lat;lon;timestamp;temperature;humidity
75517;DHT22;64097;52.548;13.406;2023-03-31T06:05:09;15.50;67.20
75517;DHT22;64097;52.548;13.406;2023-03-31T06:07:35;15.60;67.10
75517;DHT22;64097;52.548;13.406;2023-03-31T06:10:01;15.70;67.10
75517;DHT22;64097;52.548;13.406;2023-03-31T06:12:26;15.70;66.90
75517;DHT22;64097;52.548;13.406;2023-03-31T06:14:52;15.70;66.50
75517;DHT22;64097;52.548;13.406;2023-03-31T06:17:18;15.70;66.40
75517;DHT22;64097;52.548;13.406;2023-03-31T06:19:43;15.70;66.20
75517;DHT22;64097;52.548;13.406;2023-03-31T06:22:09;15.80;66.10
75517;DHT22;64097;52.548;13.406;2023-03-31T06:24:35;15.80;66.10
75517;DHT22;64097;52.548;13.406;2023-03-31T06:27:01;15.80;66.40
75517;DHT22;64097;52.548;13.406;2023-03-31T06:29:28;15.80;66.10
75517;DHT22;64097;52.548;13.406;2023-03-31T06:31:53;15.80;66.00
75517;DHT22;64097;52.548;13.406;2023-03-31T06:34:20;15.80;66.10
75517;DHT22;64097;52.548;13.406;2023-03-31T06:36:46;15.80;66.20
75517;DHT22;64097;52.548;13.406;2023-03-31T06:39:11;15.90;66.10
75517;DHT22;64097;52.548;13.406;2023-03-31T06:41:37;15.90;66.40
75517;DHT22;64097;52.548;13.406;2023-03-31T06:44:03;15.90;66.20
75517;DHT22;64097;52.548;13.406;2023-03-31T06:46:29;15.90;65.80
75517;DHT22;64097;52.548;13.406;2023-03-31T06:48:55;15.90;65.70
75517;DHT22;64097;52.548;13.406;2023-03-31T06:51:21;16.00;65.90
75517;DHT22;64097;52.548;13.406;2023-03-31T06:53:47;16.00;65.60
75517;DHT22;64097;52.548;13.406;2023-03-31T06:56:12;16.10;65.60
75517;DHT22;64097;52.548;13.406;2023-03-31T06:58:38;16.10;65.30
75517;DHT22;64097;52.548;13.406;2023-03-31T07:01:04;16.10;65.30
75517;DHT22;64097;52.548;13.406;2023-03-31T07:03:31;16.10;65.00
75517;DHT22;64097;52.548;13.406;2023-03-31T07:05:57;16.10;64.80
75517;DHT22;64097;52.548;13.406;2023-03-31T07:08:23;16.10;64.80
75517;DHT22;64097;52.548;13.406;2023-03-31T07:10:53;16.10;64.70
75517;DHT22;64097;52.548;13.406;2023-03-31T07:13:19;16.20;65.00
75517;DHT22;64097;52.548;13.406;2023-03-31T07:15:51;16.10;64.80
75517;DHT22;64097;52.548;13.406;2023-03-31T07:18:17;16.20;65.20
75517;DHT22;64097;52.548;13.406;2023-03-31T07:20:47;16.20;65.20
75517;DHT22;64097;52.548;13.406;2023-03-31T07:23:13;16.30;65.00
75517;DHT22;64097;52.548;13.406;2023-03-31T07:25:39;16.40;64.90
75517;DHT22;64097;52.548;13.406;2023-03-31T07:28:05;16.40;64.60
75517;DHT22;64097;52.548;13.406;2023-03-31T07:30:31;16.50;65.10
75517;DHT22;64097;52.548;13.406;2023-03-31T07:32:58;16.60;65.00
75517;DHT22;64097;52.548;13.406;2023-03-31T07:35:23;16.60;64.30
75517;DHT22;64097;52.548;13.406;2023-03-31T07:37:50;16.70;64.00
75517;DHT22;64097;52.548;13.406;2023-03-31T07:40:23;16.70;63.60
75517;DHT22;64097;52.548;13.406;2023-03-31T07:42:49;16.80;63.70
75517;DHT22;64097;52.548;13.406;2023-03-31T07:45:17;16.80;63.60
75517;DHT22;64097;52.548;13.406;2023-03-31T07:47:44;16.90;63.20
75517;DHT22;64097;52.548;13.406;2023-03-31T07:50:11;16.90;62.90
75517;DHT22;64097;52.548;13.406;2023-03-31T07:52:37;17.00;62.80
75517;DHT22;64097;52.548;13.406;2023-03-31T07:55:04;17.00;62.90
75517;DHT22;64097;52.548;13.406;2023-03-31T07:57:30;17.10;63.10
75517;DHT22;64097;52.548;13.406;2023-03-31T07:59:56;17.20;62.60
75517;DHT22;64097;52.548;13.406;2023-03-31T08:02:22;17.30;62.10
75517;DHT22;64097;52.548;13.406;2023-03-31T08:04:48;17.30;62.00
75517;DHT22;64097;52.548;13.406;2023-03-31T08:07:15;17.40;62.00
75517;DHT22;64097;52.548;13.406;2023-03-31T08:09:43;17.40;61.90
75517;DHT22;64097;52.548;13.406;2023-03-31T08:12:09;17.50;61.90
75517;DHT22;64097;52.548;13.406;2023-03-31T08:14:35;17.60;61.80
75517;DHT22;64097;52.548;13.406;2023-03-31T08:17:01;17.60;61.70
75517;DHT22;64097;52.548;13.406;2023-03-31T08:19:27;17.70;61.70
75517;DHT22;64097;52.548;13.406;2023-03-31T08:21:54;17.70;61.80
75517;DHT22;64097;52.548;13.406;2023-03-31T08:24:20;17.80;61.80
75517;DHT22;64097;52.548;13.406;2023-03-31T08:26:46;17.90;61.10
75517;DHT22;64097;52.548;13.406;2023-03-31T08:29:12;17.90;60.90
75517;DHT22;64097;52.548;13.406;2023-03-31T08:31:37;18.00;61.00
75517;DHT22;64097;52.548;13.406;2023-03-31T08:34:04;18.10;60.30
75517;DHT22;64097;52.548;13.406;2023-03-31T08:36:30;18.10;60.00
75517;DHT22;64097;52.548;13.406;2023-03-31T08:38:56;18.20;60.10
75517;DHT22;64097;52.548;13.406;2023-03-31T08:44:07;18.30;60.00
75517;DHT22;64097;52.548;13.406;2023-03-31T08:46:35;18.40;59.30
75517;DHT22;64097;52.548;13.406;2023-03-31T08:49:03;18.40;59.50
75517;DHT22;64097;52.548;13.406;2023-03-31T08:51:34;18.50;59.40
75517;DHT22;64097;52.548;13.406;2023-03-31T08:54:10;18.60;58.90
75517;DHT22;64097;52.548;13.406;2023-03-31T08:56:43;18.70;59.00
75517;DHT22;64097;52.548;13.406;2023-03-31T08:59:30;18.80;58.80
75517;DHT22;64097;52.548;13.406;2023-03-31T09:04:47;19.00;58.10
75517;DHT22;64097;52.548;13.406;2023-03-31T09:10:04;19.10;58.00
75517;DHT22;64097;52.548;13.406;2023-03-31T09:18:33;19.20;57.20
75517;DHT22;64097;52.548;13.406;2023-03-31T09:21:15;19.20;57.50
75517;DHT22;64097;52.548;13.406;2023-03-31T09:24:02;19.30;57.80
75517;DHT22;64097;52.548;13.406;2023-03-31T09:26:44;19.30;57.50
75517;DHT22;64097;52.548;13.406;2023-03-31T09:29:39;19.40;57.30
75517;DHT22;64097;52.548;13.406;2023-03-31T09:32:26;19.50;56.90
75517;DHT22;64097;52.548;13.406;2023-03-31T09:35:19;19.50;56.70
75517;DHT22;64097;52.548;13.406;2023-03-31T09:37:46;19.50;56.80
75517;DHT22;64097;52.548;13.406;2023-03-31T09:40:16;19.50;57.00
75517;DHT22;64097;52.548;13.406;2023-03-31T09:42:42;19.60;56.80
75517;DHT22;64097;52.548;13.406;2023-03-31T09:45:19;19.70;56.40
75517;DHT22;64097;52.548;13.406;2023-03-31T09:47:49;19.70;56.10
75517;DHT22;64097;52.548;13.406;2023-03-31T09:50:17;19.70;56.00
75517;DHT22;64097;52.548;13.406;2023-03-31T09:52:53;19.80;55.70
75517;DHT22;64097;52.548;13.406;2023-03-31T09:55:24;19.90;55.50
75517;DHT22;64097;52.548;13.406;2023-03-31T09:57:51;19.90;55.20
75517;DHT22;64097;52.548;13.406;2023-03-31T10:00:20;19.90;55.00
75517;DHT22;64097;52.548;13.406;2023-03-31T10:02:52;19.90;55.00
75517;DHT22;64097;52.548;13.406;2023-03-31T10:05:36;19.90;54.80
75517;DHT22;64097;52.548;13.406;2023-03-31T10:08:23;19.90;54.50
75517;DHT22;64097;52.548;13.406;2023-03-31T10:10:55;19.90;54.50
75517;DHT22;64097;52.548;13.406;2023-03-31T10:13:25;19.90;54.40
75517;DHT22;64097;52.548;13.406;2023-03-31T10:16:06;19.80;53.90
75517;DHT22;64097;52.548;13.406;2023-03-31T10:18:39;19.70;54.10
75517;DHT22;64097;52.548;13.406;2023-03-31T10:21:21;19.70;54.50
75517;DHT22;64097;52.548;13.406;2023-03-31T10:23:49;19.70;54.40
75517;DHT22;64097;52.548;13.406;2023-03-31T10:26:21;19.60;54.10
75517;DHT22;64097;52.548;13.406;2023-03-31T10:28:50;19.50;55.10
75517;DHT22;64097;52.548;13.406;2023-03-31T10:31:24;19.50;55.00
75517;DHT22;64097;52.548;13.406;2023-03-31T10:33:50;19.40;55.70
75517;DHT22;64097;52.548;13.406;2023-03-31T10:38:43;19.40;56.40
75517;DHT22;64097;52.548;13.406;2023-03-31T10:41:10;19.30;56.70
75517;DHT22;64097;52.548;13.406;2023-03-31T10:43:40;19.40;56.90
75517;DHT22;64097;52.548;13.406;2023-03-31T10:46:07;19.40;56.90
75517;DHT22;64097;52.548;13.406;2023-03-31T10:48:35;19.50;57.00
75517;DHT22;64097;52.548;13.406;2023-03-31T10:51:17;19.50;57.10
75517;DHT22;64097;52.548;13.406;2023-03-31T10:53:48;19.60;56.50
75517;DHT22;64097;52.548;13.406;2023-03-31T11:01:50;19.80;55.90
75517;DHT22;64097;52.548;13.406;2023-03-31T11:10:00;19.90;56.00
75517;DHT22;64097;52.548;13.406;2023-03-31T11:12:35;19.90;55.70
75517;DHT22;64097;52.548;13.406;2023-03-31T11:20:30;20.10;57.30
75517;DHT22;64097;52.548;13.406;2023-03-31T11:26:03;20.20;56.40
75517;DHT22;64097;52.548;13.406;2023-03-31T11:42:25;20.60;56.10
75517;DHT22;64097;52.548;13.406;2023-03-31T11:44:57;20.60;55.80
75517;DHT22;64097;52.548;13.406;2023-03-31T11:47:29;20.70;55.70
75517;DHT22;64097;52.548;13.406;2023-03-31T11:49:59;20.70;55.50
75517;DHT22;64097;52.548;13.406;2023-03-31T11:52:50;20.70;55.30
75517;DHT22;64097;52.548;13.406;2023-03-31T11:55:20;20.70;55.00
75517;DHT22;64097;52.548;13.406;2023-03-31T12:06:03;20.70;53.90
75517;DHT22;64097;52.548;13.406;2023-03-31T12:08:40;20.70;53.90
75517;DHT22;64097;52.548;13.406;2023-03-31T12:11:23;20.70;54.10
75517;DHT22;64097;52.548;13.406;2023-03-31T12:16:42;20.70;53.80
75517;DHT22;64097;52.548;13.406;2023-03-31T12:19:48;20.70;54.00
75517;DHT22;64097;52.548;13.406;2023-03-31T12:22:25;20.70;54.70
75517;DHT22;64097;52.548;13.406;2023-03-31T12:24:52;20.60;55.30
75517;DHT22;64097;52.548;13.406;2023-03-31T12:27:39;20.40;55.80
75517;DHT22;64097;52.548;13.406;2023-03-31T12:30:32;20.30;56.30
75517;DHT22;64097;52.548;13.406;2023-03-31T12:33:18;20.20;56.80
75517;DHT22;64097;52.548;13.406;2023-03-31T12:41:44;20.00;58.20
75517;DHT22;64097;52.548;13.406;2023-03-31T12:55:49;20.20;57.20
75517;DHT22;64097;52.548;13.406;2023-03-31T13:09:08;20.00;55.50
75517;DHT22;64097;52.548;13.406;2023-03-31T13:11:52;20.00;56.30
75517;DHT22;64097;52.548;13.406;2023-03-31T13:14:19;19.80;56.90
75517;DHT22;64097;52.548;13.406;2023-03-31T13:16:45;19.70;57.50
75517;DHT22;64097;52.548;13.406;2023-03-31T13:19:27;19.60;58.00
75517;DHT22;64097;52.548;13.406;2023-03-31T13:21:56;19.50;58.70
75517;DHT22;64097;52.548;13.406;2023-03-31T13:24:26;19.30;59.10
75517;DHT22;64097;52.548;13.406;2023-03-31T13:26:53;19.20;59.50
75517;DHT22;64097;52.548;13.406;2023-03-31T13:29:23;19.10;60.40
75517;DHT22;64097;52.548;13.406;2023-03-31T13:32:05;19.00;61.90
75517;DHT22;64097;52.548;13.406;2023-03-31T13:34:39;18.90;62.10
75517;DHT22;64097;52.548;13.406;2023-03-31T13:44:14;18.70;63.30
75517;DHT22;64097;52.548;13.406;2023-03-31T14:08:42;18.10;66.00
75517;DHT22;64097;52.548;13.406;2023-03-31T14:11:24;18.10;66.60
75517;DHT22;64097;52.548;13.406;2023-03-31T14:14:16;18.00;67.20
75517;DHT22;64097;52.548;13.406;2023-03-31T14:17:00;17.90;65.50
75517;DHT22;64097;52.548;13.406;2023-03-31T14:19:57;17.80;66.40
75517;DHT22;64097;52.548;13.406;2023-03-31T14:28:12;17.70;66.40
75517;DHT22;64097;52.548;13.406;2023-03-31T14:36:12;17.60;67.30
75517;DHT22;64097;52.548;13.406;2023-03-31T14:38:40;17.60;67.00
75517;DHT22;64097;52.548;13.406;2023-03-31T14:41:06;17.60;66.30
75517;DHT22;64097;52.548;13.406;2023-03-31T14:43:46;17.60;66.50
75517;DHT22;64097;52.548;13.406;2023-03-31T14:46:18;17.60;66.10
75517;DHT22;64097;52.548;13.406;2023-03-31T14:48:46;17.50;66.00
75517;DHT22;64097;52.548;13.406;2023-03-31T14:51:18;17.60;66.30
75517;DHT22;64097;52.548;13.406;2023-03-31T14:54:00;17.60;66.40
75517;DHT22;64097;52.548;13.406;2023-03-31T14:56:37;17.60;66.50
75517;DHT22;64097;52.548;13.406;2023-03-31T14:59:06;17.60;66.10
75517;DHT22;64097;52.548;13.406;2023-03-31T15:01:34;17.60;65.70
75517;DHT22;64097;52.548;13.406;2023-03-31T15:04:16;17.60;66.50
75517;DHT22;64097;52.548;13.406;2023-03-31T15:06:45;17.60;66.20
75517;DHT22;64097;52.548;13.406;2023-03-31T15:09:26;17.60;66.10
75517;DHT22;64097;52.548;13.406;2023-03-31T15:12:05;17.60;66.10
75517;DHT22;64097;52.548;13.406;2023-03-31T15:14:44;17.60;66.00
75517;DHT22;64097;52.548;13.406;2023-03-31T15:17:22;17.60;66.00
75517;DHT22;64097;52.548;13.406;2023-03-31T15:19:57;17.60;66.10
75517;DHT22;64097;52.548;13.406;2023-03-31T15:22:25;17.50;65.10
75517;DHT22;64097;52.548;13.406;2023-03-31T15:24:52;17.50;65.40
75517;DHT22;64097;52.548;13.406;2023-03-31T15:27:40;17.50;65.40
75517;DHT22;64097;52.548;13.406;2023-03-31T15:30:15;17.40;65.30
75517;DHT22;64097;52.548;13.406;2023-03-31T15:32:41;17.40;65.50
75517;DHT22;64097;52.548;13.406;2023-03-31T15:37:43;17.40;65.20
75517;DHT22;64097;52.548;13.406;2023-03-31T15:40:24;17.30;65.50
75517;DHT22;64097;52.548;13.406;2023-03-31T15:45:51;17.30;65.30
75517;DHT22;64097;52.548;13.406;2023-03-31T15:48:24;17.30;65.90
75517;DHT22;64097;52.548;13.406;2023-03-31T15:51:02;17.30;66.20
75517;DHT22;64097;52.548;13.406;2023-03-31T15:53:50;17.30;66.10
75517;DHT22;64097;52.548;13.406;2023-03-31T15:58:59;17.30;66.40
75517;DHT22;64097;52.548;13.406;2023-03-31T16:01:34;17.30;66.70
75517;DHT22;64097;52.548;13.406;2023-03-31T16:04:07;17.30;66.60
75517;DHT22;64097;52.548;13.406;2023-03-31T16:06:38;17.30;66.70
75517;DHT22;64097;52.548;13.406;2023-03-31T16:09:08;17.30;66.50
75517;DHT22;64097;52.548;13.406;2023-03-31T16:11:51;17.30;65.80
75517;DHT22;64097;52.548;13.406;2023-03-31T16:14:25;17.30;65.60
75517;DHT22;64097;52.548;13.406;2023-03-31T16:16:56;17.30;66.00
75517;DHT22;64097;52.548;13.406;2023-03-31T16:19:24;17.30;66.30
75517;DHT22;64097;52.548;13.406;2023-03-31T16:21:53;17.30;66.60
75517;DHT22;64097;52.548;13.406;2023-03-31T16:24:26;17.40;66.40
75517;DHT22;64097;52.548;13.406;2023-03-31T16:27:00;17.40;66.50
75517;DHT22;64097;52.548;13.406;2023-03-31T16:29:34;17.40;65.80
75517;DHT22;64097;52.548;13.406;2023-03-31T16:34:32;17.30;65.10
75517;DHT22;64097;52.548;13.406;2023-03-31T16:36:57;17.30;64.90
75517;DHT22;64097;52.548;13.406;2023-03-31T16:39:23;17.30;65.10
75517;DHT22;64097;52.548;13.406;2023-03-31T16:41:49;17.30;65.20
75517;DHT22;64097;52.548;13.406;2023-03-31T16:44:15;17.30;65.10
75517;DHT22;64097;52.548;13.406;2023-03-31T16:46:40;17.30;65.10
75517;DHT22;64097;52.548;13.406;2023-03-31T16:49:06;17.20;64.50
75517;DHT22;64097;52.548;13.406;2023-03-31T16:51:32;17.20;63.80
75517;DHT22;64097;52.548;13.406;2023-03-31T16:53:57;17.10;64.70
75517;DHT22;64097;52.548;13.406;2023-03-31T16:56:23;17.10;64.40
75517;DHT22;64097;52.548;13.406;2023-03-31T16:58:49;17.10;65.10
75517;DHT22;64097;52.548;13.406;2023-03-31T17:01:15;17.10;65.50
75517;DHT22;64097;52.548;13.406;2023-03-31T17:03:40;17.10;65.20
75517;DHT22;64097;52.548;13.406;2023-03-31T17:06:11;17.10;64.50
75517;DHT22;64097;52.548;13.406;2023-03-31T17:08:37;17.10;65.00
75517;DHT22;64097;52.548;13.406;2023-03-31T17:11:07;17.10;65.20
75517;DHT22;64097;52.548;13.406;2023-03-31T17:13:35;17.10;65.20
75517;DHT22;64097;52.548;13.406;2023-03-31T17:16:02;17.10;65.20
75517;DHT22;64097;52.548;13.406;2023-03-31T17:18:28;17.10;64.80
75517;DHT22;64097;52.548;13.406;2023-03-31T17:20:54;17.10;64.50
75517;DHT22;64097;52.548;13.406;2023-03-31T17:23:26;17.10;63.80
75517;DHT22;64097;52.548;13.406;2023-03-31T17:25:52;17.00;63.70
75517;DHT22;64097;52.548;13.406;2023-03-31T17:28:18;17.00;63.80
75517;DHT22;64097;52.548;13.406;2023-03-31T17:30:44;16.90;64.30
75517;DHT22;64097;52.548;13.406;2023-03-31T17:33:13;16.90;64.60
75517;DHT22;64097;52.548;13.406;2023-03-31T17:35:40;16.90;64.70
75517;DHT22;64097;52.548;13.406;2023-03-31T17:38:06;16.90;64.70
75517;DHT22;64097;52.548;13.406;2023-03-31T17:40:34;16.90;64.70
75517;DHT22;64097;52.548;13.406;2023-03-31T17:43:00;16.90;63.90
75517;DHT22;64097;52.548;13.406;2023-03-31T17:45:29;16.90;64.00
75517;DHT22;64097;52.548;13.406;2023-03-31T17:47:56;16.80;64.10
75517;DHT22;64097;52.548;13.406;2023-03-31T17:50:23;16.80;64.60
75517;DHT22;64097;52.548;13.406;2023-03-31T17:52:49;16.80;64.70
75517;DHT22;64097;52.548;13.406;2023-03-31T17:55:15;16.80;64.50
75517;DHT22;64097;52.548;13.406;2023-03-31T17:57:41;16.80;64.70
75517;DHT22;64097;52.548;13.406;2023-03-31T18:00:08;16.90;65.70
75517;DHT22;64097;52.548;13.406;2023-03-31T18:02:37;16.90;64.80
75517;DHT22;64097;52.548;13.406;2023-03-31T18:05:04;16.90;64.80
75517;DHT22;64097;52.548;13.406;2023-03-31T18:07:31;16.90;64.90
75517;DHT22;64097;52.548;13.406;2023-03-31T18:09:57;16.80;64.90
75517;DHT22;64097;52.548;13.406;2023-03-31T18:12:23;16.90;65.20
75517;DHT22;64097;52.548;13.406;2023-03-31T18:14:49;16.90;65.20
75517;DHT22;64097;52.548;13.406;2023-03-31T18:17:16;16.90;65.00
75517;DHT22;64097;52.548;13.406;2023-03-31T18:19:43;16.90;64.20
75517;DHT22;64097;52.548;13.406;2023-03-31T18:22:09;16.90;64.70
75517;DHT22;64097;52.548;13.406;2023-03-31T18:24:35;16.90;65.00
75517;DHT22;64097;52.548;13.406;2023-03-31T18:27:03;16.80;65.10
75517;DHT22;64097;52.548;13.406;2023-03-31T18:29:29;16.90;65.10
75517;DHT22;64097;52.548;13.406;2023-03-31T18:31:55;16.80;64.90
75517;DHT22;64097;52.548;13.406;2023-03-31T18:34:20;16.80;64.70
75517;DHT22;64097;52.548;13.406;2023-03-31T18:36:46;16.80;64.70
75517;DHT22;64097;52.548;13.406;2023-03-31T18:39:12;16.80;64.90
75517;DHT22;64097;52.548;13.406;2023-03-31T18:41:43;16.80;64.90
75517;DHT22;64097;52.548;13.406;2023-03-31T18:44:09;16.80;65.00
75517;DHT22;64097;52.548;13.406;2023-03-31T18:46:35;16.80;65.00
75517;DHT22;64097;52.548;13.406;2023-03-31T18:49:01;16.80;65.10
75517;DHT22;64097;52.548;13.406;2023-03-31T18:51:27;16.80;64.90
75517;DHT22;64097;52.548;13.406;2023-03-31T18:53:53;16.90;65.10
75517;DHT22;64097;52.548;13.406;2023-03-31T18:56:18;16.80;64.60
75517;DHT22;64097;52.548;13.406;2023-03-31T18:58:44;16.80;64.60
75517;DHT22;64097;52.548;13.406;2023-03-31T19:01:10;16.80;64.70
75517;DHT22;64097;52.548;13.406;2023-03-31T19:03:35;16.80;64.80
75517;DHT22;64097;52.548;13.406;2023-03-31T19:06:06;16.80;65.10
75517;DHT22;64097;52.548;13.406;2023-03-31T19:08:34;16.80;65.20
75517;DHT22;64097;52.548;13.406;2023-03-31T19:11:12;16.80;65.10
75517;DHT22;64097;52.548;13.406;2023-03-31T19:13:39;16.80;65.10
75517;DHT22;64097;52.548;13.406;2023-03-31T19:16:06;16.80;65.10
75517;DHT22;64097;52.548;13.406;2023-03-31T19:18:32;16.80;65.10
75517;DHT22;64097;52.548;13.406;2023-03-31T19:20:59;16.80;65.10
75517;DHT22;64097;52.548;13.406;2023-03-31T19:23:24;16.70;65.20
75517;DHT22;64097;52.548;13.406;2023-03-31T19:25:54;16.70;65.20
75517;DHT22;64097;52.548;13.406;2023-03-31T19:28:22;16.70;65.30
75517;DHT22;64097;52.548;13.406;2023-03-31T19:30:51;16.80;65.40
75517;DHT22;64097;52.548;13.406;2023-03-31T19:33:18;16.80;65.50
75517;DHT22;64097;52.548;13.406;2023-03-31T19:35:45;16.80;65.50
75517;DHT22;64097;52.548;13.406;2023-03-31T19:38:12;16.80;65.30
75517;DHT22;64097;52.548;13.406;2023-03-31T19:40:39;16.80;65.10
75517;DHT22;64097;52.548;13.406;2023-03-31T19:43:11;16.80;65.20
75517;DHT22;64097;52.548;13.406;2023-03-31T19:45:42;16.80;65.30
75517;DHT22;64097;52.548;13.406;2023-03-31T19:48:08;16.80;65.10
75517;DHT22;64097;52.548;13.406;2023-03-31T19:50:33;16.70;64.70
75517;DHT22;64097;52.548;13.406;2023-03-31T19:52:59;16.70;64.90
75517;DHT22;64097;52.548;13.406;2023-03-31T19:55:25;16.70;64.90
75517;DHT22;64097;52.548;13.406;2023-03-31T19:57:51;16.70;65.10
75517;DHT22;64097;52.548;13.406;2023-03-31T20:00:18;16.70;64.90
75517;DHT22;64097;52.548;13.406;2023-03-31T20:02:44;16.70;65.10
75517;DHT22;64097;52.548;13.406;2023-03-31T20:05:11;16.70;65.20
75517;DHT22;64097;52.548;13.406;2023-03-31T20:07:36;16.70;65.20
75517;DHT22;64097;52.548;13.406;2023-03-31T20:10:02;16.70;65.40
75517;DHT22;64097;52.548;13.406;2023-03-31T20:12:28;16.60;65.30
75517;DHT22;64097;52.548;13.406;2023-03-31T20:14:54;16.70;65.50
75517;DHT22;64097;52.548;13.406;2023-03-31T20:17:19;16.60;65.30
75517;DHT22;64097;52.548;13.406;2023-03-31T20:19:45;16.60;65.30
75517;DHT22;64097;52.548;13.406;2023-03-31T20:22:11;16.60;65.30
75517;DHT22;64097;52.548;13.406;2023-03-31T20:24:37;16.60;65.20
75517;DHT22;64097;52.548;13.406;2023-03-31T20:27:03;16.60;65.20
75517;DHT22;64097;52.548;13.406;2023-03-31T20:29:29;16.60;65.30
75517;DHT22;64097;52.548;13.406;2023-03-31T20:31:55;16.60;65.50
75517;DHT22;64097;52.548;13.406;2023-03-31T20:34:20;16.60;65.60
75517;DHT22;64097;52.548;13.406;2023-03-31T20:36:47;16.60;65.70
75517;DHT22;64097;52.548;13.406;2023-03-31T20:39:15;16.60;65.70
75517;DHT22;64097;52.548;13.406;2023-03-31T20:41:42;16.60;65.70
75517;DHT22;64097;52.548;13.406;2023-03-31T20:44:08;16.60;65.70
75517;DHT22;64097;52.548;13.406;2023-03-31T20:46:35;16.70;65.70
75517;DHT22;64097;52.548;13.406;2023-03-31T20:49:01;16.70;65.70
75517;DHT22;64097;52.548;13.406;2023-03-31T20:51:30;16.70;65.60
75517;DHT22;64097;52.548;13.406;2023-03-31T20:53:57;16.70;65.50
75517;DHT22;64097;52.548;13.406;2023-03-31T20:56:25;16.70;65.60
75517;DHT22;64097;52.548;13.406;2023-03-31T20:58:52;16.70;65.60
75517;DHT22;64097;52.548;13.406;2023-03-31T21:01:20;16.70;65.60
75517;DHT22;64097;52.548;13.406;2023-03-31T21:03:46;16.70;65.50
75517;DHT22;64097;52.548;13.406;2023-03-31T21:06:15;16.70;65.60
75517;DHT22;64097;52.548;13.406;2023-03-31T21:08:43;16.70;65.60
75517;DHT22;64097;52.548;13.406;2023-03-31T21:11:13;16.70;65.70
75517;DHT22;64097;52.548;13.406;2023-03-31T21:13:38;16.70;65.80
75517;DHT22;64097;52.548;13.406;2023-03-31T21:16:05;16.60;65.80
75517;DHT22;64097;52.548;13.406;2023-03-31T21:18:33;16.60;65.60
75517;DHT22;64097;52.548;13.406;2023-03-31T21:21:06;16.60;65.60
75517;DHT22;64097;52.548;13.406;2023-03-31T21:23:32;16.60;65.70
75517;DHT22;64097;52.548;13.406;2023-03-31T21:26:00;16.50;65.60
75517;DHT22;64097;52.548;13.406;2023-03-31T21:28:29;16.50;66.00
75517;DHT22;64097;52.548;13.406;2023-03-31T21:30:59;16.50;66.40
75517;DHT22;64097;52.548;13.406;2023-03-31T21:33:26;16.50;66.60
75517;DHT22;64097;52.548;13.406;2023-03-31T21:35:53;16.50;66.60
75517;DHT22;64097;52.548;13.406;2023-03-31T21:38:19;16.50;66.60
75517;DHT22;64097;52.548;13.406;2023-03-31T21:40:46;16.50;66.60
75517;DHT22;64097;52.548;13.406;2023-03-31T21:43:12;16.50;66.80
75517;DHT22;64097;52.548;13.406;2023-03-31T21:45:39;16.50;67.00
75517;DHT22;64097;52.548;13.406;2023-03-31T21:48:07;16.40;67.10
75517;DHT22;64097;52.548;13.406;2023-03-31T21:50:37;16.40;67.40
75517;DHT22;64097;52.548;13.406;2023-03-31T21:53:05;16.40;67.30
75517;DHT22;64097;52.548;13.406;2023-03-31T21:55:32;16.40;67.50
75517;DHT22;64097;52.548;13.406;2023-03-31T21:57:59;16.40;67.60
75517;DHT22;64097;52.548;13.406;2023-03-31T22:00:25;16.40;67.60
75517;DHT22;64097;52.548;13.406;2023-03-31T22:02:52;16.40;67.60
75517;DHT22;64097;52.548;13.406;2023-03-31T22:05:18;16.30;67.40
75517;DHT22;64097;52.548;13.406;2023-03-31T22:07:44;16.30;67.60
75517;DHT22;64097;52.548;13.406;2023-03-31T22:10:10;16.30;67.90
75517;DHT22;64097;52.548;13.406;2023-03-31T22:12:36;16.30;67.90
75517;DHT22;64097;52.548;13.406;2023-03-31T22:15:02;16.30;68.00
75517;DHT22;64097;52.548;13.406;2023-03-31T22:17:28;16.30;67.70
75517;DHT22;64097;52.548;13.406;2023-03-31T22:19:54;16.30;67.80
75517;DHT22;64097;52.548;13.406;2023-03-31T22:22:20;16.20;67.70
75517;DHT22;64097;52.548;13.406;2023-03-31T22:24:46;16.20;67.90
75517;DHT22;64097;52.548;13.406;2023-03-31T22:27:12;16.20;67.70
75517;DHT22;64097;52.548;13.406;2023-03-31T22:29:38;16.20;67.50
75517;DHT22;64097;52.548;13.406;2023-03-31T22:32:05;16.20;67.60
75517;DHT22;64097;52.548;13.406;2023-03-31T22:34:31;16.20;67.70
75517;DHT22;64097;52.548;13.406;2023-03-31T22:36:57;16.10;68.00
75517;DHT22;64097;52.548;13.406;2023-03-31T22:39:23;16.10;68.20
75517;DHT22;64097;52.548;13.406;2023-03-31T22:41:49;16.20;67.70
75517;DHT22;64097;52.548;13.406;2023-03-31T22:44:15;16.10;67.30
75517;DHT22;64097;52.548;13.406;2023-03-31T22:46:42;16.10;67.50
75517;DHT22;64097;52.548;13.406;2023-03-31T22:49:11;16.10;67.60
75517;DHT22;64097;52.548;13.406;2023-03-31T22:51:37;16.00;67.80
75517;DHT22;64097;52.548;13.406;2023-03-31T22:54:06;16.00;68.00
75517;DHT22;64097;52.548;13.406;2023-03-31T22:56:32;16.10;68.30
75517;DHT22;64097;52.548;13.406;2023-03-31T22:58:58;16.10;68.10
75517;DHT22;64097;52.548;13.406;2023-03-31T23:01:23;16.00;67.90
75517;DHT22;64097;52.548;13.406;2023-03-31T23:03:49;16.00;68.00
75517;DHT22;64097;52.548;13.406;2023-03-31T23:06:16;16.00;68.10
75517;DHT22;64097;52.548;13.406;2023-03-31T23:08:42;16.00;68.40
75517;DHT22;64097;52.548;13.406;2023-03-31T23:11:11;16.00;68.00
75517;DHT22;64097;52.548;13.406;2023-03-31T23:13:37;16.00;68.20
75517;DHT22;64097;52.548;13.406;2023-03-31T23:16:05;16.00;68.40
75517;DHT22;64097;52.548;13.406;2023-03-31T23:18:32;16.00;68.50
75517;DHT22;64097;52.548;13.406;2023-03-31T23:20:58;16.10;68.60
75517;DHT22;64097;52.548;13.406;2023-03-31T23:23:23;16.00;68.70
75517;DHT22;64097;52.548;13.406;2023-03-31T23:25:49;16.10;68.50
75517;DHT22;64097;52.548;13.406;2023-03-31T23:28:15;16.10;68.20
75517;DHT22;64097;52.548;13.406;2023-03-31T23:30:41;16.10;68.30
75517;DHT22;64097;52.548;13.406;2023-03-31T23:33:07;16.10;68.50
75517;DHT22;64097;52.548;13.406;2023-03-31T23:35:33;16.10;69.50
75517;DHT22;64097;52.548;13.406;2023-03-31T23:37:59;16.10;68.60
75517;DHT22;64097;52.548;13.406;2023-03-31T23:40:25;16.10;68.60
75517;DHT22;64097;52.548;13.406;2023-03-31T23:42:51;16.10;68.50
75517;DHT22;64097;52.548;13.406;2023-03-31T23:45:16;16.10;68.40
75517;DHT22;64097;52.548;13.406;2023-03-31T23:47:43;16.10;68.50
75517;DHT22;64097;52.548;13.406;2023-03-31T23:50:09;16.10;68.50
75517;DHT22;64097;52.548;13.406;2023-03-31T23:52:35;16.10;68.40